createdAt,value
2023-05-15T00:01:18.262Z,100061.25
2023-05-15T00:04:06.258Z,100047.28
2023-05-15T00:06:54.154Z,100080.34
2023-05-15T00:09:41.924Z,100102.22
2023-05-15T00:12:29.684Z,100096.66
2023-05-15T00:15:17.620Z,100100.63
2023-05-15T00:18:05.529Z,100112.44
2023-05-15T00:20:53.750Z,100132.38
2023-05-15T00:23:41.441Z,100104.88
2023-05-15T00:26:29.113Z,100097.69
2023-05-15T00:29:16.835Z,100090.13
2023-05-15T00:32:06.033Z,100080.66
2023-05-15T00:34:53.773Z,100086.66
2023-05-15T00:37:41.605Z,100075.06
2023-05-15T00:40:32.451Z,100064.75
2023-05-15T00:43:20.700Z,100064.41
2023-05-15T00:46:09.168Z,100051.25
2023-05-15T00:48:58.338Z,100044.91
2023-05-15T00:51:46.000Z,100042.06
2023-05-15T00:54:33.671Z,100032.13
2023-05-15T00:57:23.684Z,100037.22
2023-05-15T01:00:12.504Z,100049.13
2023-05-15T01:03:02.101Z,100031.19
2023-05-15T01:05:50.131Z,100061.34
2023-05-15T01:08:46.605Z,100067.69
2023-05-15T01:11:38.232Z,100076.75
2023-05-15T01:14:26.037Z,100067.91
2023-05-15T01:17:13.694Z,100065.13
2023-05-15T01:20:04.321Z,100052.66
2023-05-15T01:23:11.575Z,100057.09
2023-05-15T01:26:30.997Z,100043.63
2023-05-15T01:29:31.162Z,100042.81
2023-05-15T01:32:31.545Z,100037.09
2023-05-15T01:35:29.389Z,100020.66
2023-05-15T01:38:24.272Z,100036.63
2023-05-15T01:41:35.654Z,100041.44
2023-05-15T01:44:32.288Z,100042.66
2023-05-15T01:47:33.882Z,100016.09
2023-05-15T01:50:22.808Z,100038.81
2023-05-15T01:53:11.767Z,100020.84
2023-05-15T01:56:00.278Z,100053.47
2023-05-15T01:58:49.685Z,100042.34
2023-05-15T02:01:38.621Z,100043.44
2023-05-15T02:04:26.960Z,100052.44
2023-05-15T02:07:15.172Z,100042.31
2023-05-15T02:10:04.054Z,100038.75
2023-05-15T02:12:53.099Z,100028.31
2023-05-15T02:15:42.518Z,100045.38
2023-05-15T02:18:30.459Z,100037.63
2023-05-15T02:21:18.586Z,100038.78
2023-05-15T02:24:06.502Z,100047.84
2023-05-15T02:27:01.203Z,100042.22
2023-05-15T02:30:33.657Z,100047.69
2023-05-15T02:33:46.248Z,100038.16
2023-05-15T02:36:40.920Z,100036.06
2023-05-15T02:39:30.494Z,100018.88
2023-05-15T02:42:23.066Z,100026.53
2023-05-15T02:45:12.054Z,100021.97
2023-05-15T02:48:04.688Z,100032.47
2023-05-15T02:50:53.213Z,100029.25
2023-05-15T02:53:42.518Z,100020.22
2023-05-15T02:56:30.288Z,100022.19
2023-05-15T02:59:20.252Z,99992.03
2023-05-15T03:02:07.989Z,100046.00
2023-05-15T03:05:00.699Z,100062.63
2023-05-15T03:07:48.621Z,100040.19
2023-05-15T03:10:36.340Z,100029.31
2023-05-15T03:13:24.294Z,100064.44
2023-05-15T03:16:12.047Z,100059.09
2023-05-15T03:18:59.918Z,100044.50
2023-05-15T03:21:47.658Z,100061.34
2023-05-15T03:24:35.706Z,100005.56
2023-05-15T03:27:23.519Z,100038.13
2023-05-15T03:30:14.547Z,100070.91
2023-05-15T03:33:04.238Z,100053.56
2023-05-15T03:35:52.851Z,100077.25
2023-05-15T03:38:40.889Z,100076.44
2023-05-15T03:41:29.188Z,100062.75
2023-05-15T03:44:19.635Z,100064.31
2023-05-15T03:47:07.841Z,100075.88
2023-05-15T03:49:55.471Z,100082.22
2023-05-15T03:52:43.254Z,100081.34
2023-05-15T03:55:31.029Z,100074.97
2023-05-15T03:58:19.363Z,100074.88
2023-05-15T04:01:07.961Z,100068.50
2023-05-15T04:03:55.791Z,100059.69
2023-05-15T04:06:44.006Z,100062.31
2023-05-15T04:09:31.702Z,100065.88
2023-05-15T04:12:19.495Z,100072.78
2023-05-15T04:15:21.960Z,100034.56
2023-05-15T04:18:09.865Z,100047.69
2023-05-15T04:20:57.594Z,100057.34
2023-05-15T04:23:45.516Z,100067.16
2023-05-15T04:26:33.693Z,100064.91
2023-05-15T04:29:21.439Z,100054.78
2023-05-15T04:32:09.157Z,100068.44
2023-05-15T04:34:56.948Z,100052.75
2023-05-15T04:37:45.994Z,100078.25
2023-05-15T04:40:33.645Z,100052.84
2023-05-15T04:43:21.353Z,100060.97
2023-05-15T04:46:09.050Z,100056.69
2023-05-15T04:48:56.898Z,100045.97
2023-05-15T04:51:44.622Z,100056.91
2023-05-15T04:54:32.381Z,100046.81
2023-05-15T04:57:20.076Z,100024.38
2023-05-15T05:00:12.478Z,100035.63
2023-05-15T05:03:02.534Z,100025.81
2023-05-15T05:05:50.278Z,99992.03
2023-05-15T05:08:37.961Z,100028.31
2023-05-15T05:11:25.918Z,100018.75
2023-05-15T05:14:16.684Z,100018.47
2023-05-15T05:17:04.811Z,100013.34
2023-05-15T05:19:52.529Z,100025.31
2023-05-15T05:22:41.068Z,100031.66
2023-05-15T05:25:28.798Z,100036.06
2023-05-15T05:28:16.662Z,100020.94
2023-05-15T05:31:04.494Z,100023.31
2023-05-15T05:33:53.006Z,100037.22
2023-05-15T05:36:41.229Z,100031.59
2023-05-15T05:39:28.888Z,100025.69
2023-05-15T05:42:16.642Z,100034.06
2023-05-15T05:45:07.516Z,100038.44
2023-05-15T05:47:58.578Z,100029.69
2023-05-15T05:50:46.367Z,100042.03
2023-05-15T05:53:34.138Z,100021.31
2023-05-15T05:56:22.984Z,100006.22
2023-05-15T05:59:11.116Z,100026.88
2023-05-15T06:01:58.881Z,100016.50
2023-05-15T06:04:46.712Z,100021.72
2023-05-15T06:07:35.423Z,100036.84
2023-05-15T06:10:23.388Z,100045.59
2023-05-15T06:13:11.936Z,100031.66
2023-05-15T06:15:59.621Z,100031.25
2023-05-15T06:18:47.256Z,100032.34
2023-05-15T06:21:35.092Z,100020.34
2023-05-15T06:24:22.839Z,100021.84
2023-05-15T06:27:10.698Z,100027.41
2023-05-15T06:29:59.568Z,100015.38
2023-05-15T06:32:47.353Z,100014.94
2023-05-15T06:35:37.228Z,100000.88
2023-05-15T06:38:48.187Z,99999.66
2023-05-15T06:41:36.282Z,100014.28
2023-05-15T06:44:25.609Z,100021.31
2023-05-15T06:47:13.708Z,100026.75
2023-05-15T06:50:01.498Z,100020.56
2023-05-15T06:52:51.576Z,100016.22
2023-05-15T06:55:39.291Z,99995.34
2023-05-15T06:58:27.117Z,100032.63
2023-05-15T07:01:14.920Z,100028.50
2023-05-15T07:04:03.021Z,100032.13
2023-05-15T07:06:50.744Z,100033.59
2023-05-15T07:09:38.451Z,100010.09
2023-05-15T07:12:26.828Z,100007.69
2023-05-15T07:15:14.589Z,100003.41
2023-05-15T07:18:02.422Z,99995.78
2023-05-15T07:20:50.210Z,99990.84
2023-05-15T07:23:38.050Z,99995.00
2023-05-15T07:26:34.162Z,99988.03
2023-05-15T07:29:24.295Z,99991.16
2023-05-15T07:32:11.849Z,99973.63
2023-05-15T07:34:59.640Z,99965.72
2023-05-15T07:37:47.322Z,99977.91
2023-05-15T07:43:22.609Z,99985.09
2023-05-15T07:46:10.315Z,99982.22
2023-05-15T07:48:58.035Z,99974.84
2023-05-15T07:51:45.917Z,99971.94
2023-05-15T07:54:33.568Z,99987.00
2023-05-15T07:57:21.643Z,99963.56
2023-05-15T08:00:13.898Z,99988.78
2023-05-15T08:03:01.982Z,99987.28
2023-05-15T08:05:49.727Z,100001.41
2023-05-15T08:08:37.480Z,99996.06
2023-05-15T08:11:25.233Z,99974.81
2023-05-15T08:14:13.870Z,99997.38
2023-05-15T08:17:20.988Z,99995.22
2023-05-15T08:20:09.325Z,99978.31
2023-05-15T08:22:56.985Z,100011.31
2023-05-15T08:25:44.719Z,99991.91
2023-05-15T08:28:32.391Z,99980.59
2023-05-15T08:31:20.162Z,100008.38
2023-05-15T08:34:07.956Z,100020.16
2023-05-15T08:36:56.516Z,100019.31
2023-05-15T08:39:47.292Z,100024.56
2023-05-15T08:42:55.708Z,100020.63
2023-05-15T08:45:44.237Z,99994.84
2023-05-15T08:48:36.457Z,100003.28
2023-05-15T08:51:24.849Z,99995.28
2023-05-15T08:54:12.987Z,100010.13
2023-05-15T08:57:03.951Z,100008.94
2023-05-15T08:59:53.046Z,100008.94
2023-05-15T09:02:42.987Z,100012.00
2023-05-15T09:05:32.123Z,100000.28
2023-05-15T09:08:23.202Z,100001.09
2023-05-15T09:11:12.445Z,100014.34
2023-05-15T09:14:00.321Z,99998.16
2023-05-15T09:16:51.222Z,99995.41
2023-05-15T09:19:42.573Z,100003.84
2023-05-15T09:22:34.667Z,99996.38
2023-05-15T09:25:41.240Z,100001.28
2023-05-15T09:28:31.218Z,100000.81
2023-05-15T09:31:20.551Z,99996.53
2023-05-15T09:34:10.378Z,99993.09
2023-05-15T09:36:58.435Z,99993.44
2023-05-15T09:39:46.529Z,99976.09
2023-05-15T09:42:36.638Z,99998.19
2023-05-15T09:45:30.349Z,99994.75
2023-05-15T09:48:18.517Z,100014.38
2023-05-15T09:51:14.629Z,99992.84
2023-05-15T09:54:04.593Z,100003.53
2023-05-15T09:56:52.313Z,99988.84
2023-05-15T09:59:48.076Z,99994.22
2023-05-15T10:02:36.542Z,99987.91
2023-05-15T10:05:41.992Z,99983.13
2023-05-15T10:08:34.713Z,99975.97
2023-05-15T10:11:24.631Z,99976.91
2023-05-15T10:14:14.355Z,99960.47
2023-05-15T10:17:02.465Z,99967.06
2023-05-15T10:19:58.281Z,99976.59
2023-05-15T10:22:48.972Z,99987.19
2023-05-15T10:25:51.088Z,99958.66
2023-05-15T10:28:39.313Z,99957.47
2023-05-15T10:31:29.552Z,99947.72
2023-05-15T10:34:19.107Z,99935.34
2023-05-15T10:37:07.836Z,99918.44
2023-05-15T10:39:58.253Z,99890.59
2023-05-15T10:42:49.663Z,99911.94
2023-05-15T10:45:40.622Z,99917.22
2023-05-15T10:48:29.341Z,99932.16
2023-05-15T10:51:27.000Z,99944.06
2023-05-15T10:54:15.415Z,99960.13
2023-05-15T10:57:03.094Z,99939.38
2023-05-15T10:59:51.935Z,99961.41
2023-05-15T11:02:39.824Z,99961.94
2023-05-15T11:05:27.666Z,99961.81
2023-05-15T11:08:19.717Z,99966.19
2023-05-15T11:11:08.109Z,99951.06
2023-05-15T11:14:08.149Z,99963.63
2023-05-15T11:16:55.861Z,99972.72
2023-05-15T11:20:01.826Z,99967.59
2023-05-15T11:22:59.488Z,100002.00
2023-05-15T11:25:55.222Z,99995.25
2023-05-15T11:28:43.983Z,99980.00
2023-05-15T11:31:31.732Z,99981.91
2023-05-15T11:34:34.522Z,99982.38
2023-05-15T11:37:24.825Z,99959.31
2023-05-15T11:40:21.611Z,99974.41
2023-05-15T11:43:26.515Z,99957.53
2023-05-15T11:46:15.436Z,99984.34
2023-05-15T11:49:03.310Z,99941.66
2023-05-15T11:51:51.787Z,99970.38
2023-05-15T11:54:39.558Z,99975.13
2023-05-15T11:57:27.469Z,99982.63
2023-05-15T12:00:16.043Z,99976.25
2023-05-15T12:03:04.211Z,99984.09
2023-05-15T12:05:59.480Z,99979.25
2023-05-15T12:08:54.016Z,99979.47
2023-05-15T12:11:49.223Z,99958.44
2023-05-15T12:14:38.384Z,99976.53
2023-05-15T12:17:26.323Z,99973.56
2023-05-15T12:20:18.723Z,99963.06
2023-05-15T12:23:08.507Z,99957.47
2023-05-15T12:26:03.313Z,99945.22
2023-05-15T12:28:51.956Z,99956.97
2023-05-15T12:31:40.161Z,99933.38
2023-05-15T12:34:27.973Z,99930.72
2023-05-15T12:37:18.128Z,99930.25
2023-05-15T12:40:12.256Z,99927.19
2023-05-15T12:43:00.393Z,99930.34
2023-05-15T12:45:55.496Z,99909.44
2023-05-15T12:48:46.067Z,99919.31
2023-05-15T12:51:33.819Z,99923.34
2023-05-15T12:54:24.620Z,99923.06
2023-05-15T12:57:13.051Z,99911.50
2023-05-15T13:00:00.957Z,99903.50
2023-05-15T13:02:56.422Z,99897.38
2023-05-15T13:05:45.823Z,99892.59
2023-05-15T13:08:33.717Z,99887.41
2023-05-15T13:11:22.965Z,99887.22
2023-05-15T13:14:17.808Z,99904.84
2023-05-15T13:17:06.089Z,99890.69
2023-05-15T13:19:56.147Z,99906.38
2023-05-15T13:22:43.921Z,99900.19
2023-05-15T13:25:32.411Z,99911.75
2023-05-15T13:28:20.202Z,99885.44
2023-05-15T13:31:08.024Z,99876.84
2023-05-15T13:33:55.983Z,99869.88
2023-05-15T13:36:43.679Z,99859.81
2023-05-15T13:39:31.374Z,99853.47
2023-05-15T13:42:21.522Z,99876.44
2023-05-15T13:45:14.374Z,99883.28
2023-05-15T13:48:02.168Z,99839.94
2023-05-15T13:50:49.900Z,99868.34
2023-05-15T13:53:39.650Z,99860.34
2023-05-15T13:56:27.452Z,99878.00
2023-05-15T13:59:15.252Z,99852.66
2023-05-15T14:02:03.009Z,99838.78
2023-05-15T14:04:50.676Z,99853.75
2023-05-15T14:07:41.144Z,99846.72
2023-05-15T14:10:31.972Z,99846.66
2023-05-15T14:13:19.715Z,99835.97
2023-05-15T14:16:07.735Z,99842.50
2023-05-15T14:18:57.610Z,99845.50
2023-05-15T14:21:45.552Z,99836.09
2023-05-15T14:24:33.341Z,99830.22
2023-05-15T14:27:21.213Z,99851.84
2023-05-15T14:30:09.550Z,99856.59
2023-05-15T14:32:57.237Z,99862.00
2023-05-15T14:35:45.052Z,99874.72
2023-05-15T14:38:32.923Z,99851.44
2023-05-15T14:41:23.028Z,99840.56
2023-05-15T14:44:10.837Z,99859.09
2023-05-15T14:47:08.962Z,99840.41
2023-05-15T14:49:59.711Z,99865.59
2023-05-15T14:52:53.006Z,99859.06
2023-05-15T14:55:48.275Z,99843.03
2023-05-15T14:58:38.245Z,99866.06
2023-05-15T15:01:42.260Z,99853.91
2023-05-15T15:04:34.625Z,99850.50
2023-05-15T15:07:22.375Z,99853.13
2023-05-15T15:10:10.198Z,99847.88
2023-05-15T15:12:58.288Z,99827.16
2023-05-15T15:15:46.942Z,99841.84
2023-05-15T15:18:34.907Z,99846.63
2023-05-15T15:21:22.849Z,99831.84
2023-05-15T15:24:13.509Z,99844.22
2023-05-15T15:27:01.264Z,99843.00
2023-05-15T15:29:49.025Z,99835.28
2023-05-15T15:32:38.018Z,99840.13
2023-05-15T15:35:25.939Z,99834.94
2023-05-15T15:38:14.673Z,99831.19
2023-05-15T15:41:03.908Z,99828.72
2023-05-15T15:43:51.761Z,99812.38
2023-05-15T15:46:39.483Z,99817.75
2023-05-15T15:49:31.432Z,99810.81
2023-05-15T15:52:19.326Z,99810.63
2023-05-15T15:55:07.665Z,99805.78
2023-05-15T15:57:58.329Z,99779.09
2023-05-15T16:00:48.577Z,99797.34
2023-05-15T16:03:38.836Z,99781.13
2023-05-15T16:06:29.589Z,99791.13
2023-05-15T16:09:20.056Z,99787.72
2023-05-15T16:12:07.896Z,99784.47
2023-05-15T16:14:55.609Z,99784.81
2023-05-15T16:17:44.089Z,99791.22
2023-05-15T16:20:32.896Z,99796.03
2023-05-15T16:23:22.149Z,99782.25
2023-05-15T16:26:11.405Z,99789.00
2023-05-15T16:29:01.720Z,99791.38
2023-05-15T16:31:49.952Z,99797.19
2023-05-15T16:34:38.007Z,99778.81
2023-05-15T16:37:25.799Z,99789.66
2023-05-15T16:40:13.732Z,99804.34
2023-05-15T16:43:01.385Z,99800.38
2023-05-15T16:45:50.704Z,99801.44
2023-05-15T16:48:38.512Z,99754.13
2023-05-15T16:51:26.644Z,99807.97
2023-05-15T16:54:14.449Z,99794.66
2023-05-15T16:57:02.197Z,99803.81
2023-05-15T16:59:50.230Z,99803.69
2023-05-15T17:02:38.253Z,99812.16
2023-05-15T17:05:25.941Z,99804.75
2023-05-15T17:08:13.765Z,99802.25
2023-05-15T17:11:01.566Z,99804.31
2023-05-15T17:13:49.292Z,99792.00
2023-05-15T17:16:37.142Z,99775.97
2023-05-15T17:19:24.802Z,99794.75
2023-05-15T17:22:12.452Z,99791.81
2023-05-15T17:25:03.185Z,99803.88
2023-05-15T17:27:50.967Z,99802.44
2023-05-15T17:30:40.961Z,99792.78
2023-05-15T17:33:28.729Z,99820.69
2023-05-15T17:36:16.567Z,99818.84
2023-05-15T17:39:06.814Z,99829.38
2023-05-15T17:41:54.558Z,99819.56
2023-05-15T17:44:42.256Z,99820.47
2023-05-15T17:47:30.083Z,99821.84
2023-05-15T17:50:17.763Z,99804.13
2023-05-15T17:53:06.105Z,99814.94
2023-05-15T17:55:53.949Z,99757.16
2023-05-15T17:58:41.605Z,99805.63
2023-05-15T18:01:29.514Z,99815.34
2023-05-15T18:04:17.484Z,99793.56
2023-05-15T18:07:05.627Z,99832.91
2023-05-15T18:09:53.471Z,99832.22
2023-05-15T18:12:41.302Z,99823.53
2023-05-15T18:15:37.912Z,99834.78
2023-05-15T18:18:26.066Z,99826.47
2023-05-15T18:21:14.016Z,99838.97
2023-05-15T18:24:01.781Z,99851.78
2023-05-15T18:26:49.515Z,99845.44
2023-05-15T18:29:37.217Z,99860.19
2023-05-15T18:32:27.513Z,99870.59
2023-05-15T18:35:18.419Z,99854.31
2023-05-15T18:38:06.533Z,99872.16
2023-05-15T18:40:54.271Z,99880.16
2023-05-15T18:43:41.833Z,99871.03
2023-05-15T18:46:31.437Z,99864.28
2023-05-15T18:49:19.145Z,99864.38
2023-05-15T18:52:06.900Z,99892.69
2023-05-15T18:54:54.545Z,99871.66
2023-05-15T18:57:42.693Z,99877.97
2023-05-15T19:03:21.371Z,99852.56
2023-05-15T19:06:09.150Z,99853.03
2023-05-15T19:08:56.908Z,99882.84
2023-05-15T19:11:46.946Z,99876.50
2023-05-15T19:14:34.662Z,99855.88
2023-05-15T19:17:24.489Z,99869.72
2023-05-15T19:20:12.568Z,99862.94
2023-05-15T19:23:00.286Z,99858.09
2023-05-15T19:25:48.073Z,99815.50
2023-05-15T19:28:35.849Z,99756.06
2023-05-15T19:31:31.495Z,99720.34
2023-05-15T19:34:20.180Z,99686.75
2023-05-15T19:37:07.856Z,99666.94
2023-05-15T19:39:55.625Z,99676.66
2023-05-15T19:42:43.376Z,99700.13
2023-05-15T19:45:31.127Z,99726.03
2023-05-15T19:48:18.873Z,99778.31
2023-05-15T19:51:09.604Z,99796.28
2023-05-15T19:53:59.401Z,99809.56
2023-05-15T19:56:47.167Z,99820.09
2023-05-15T19:59:36.955Z,99830.94
2023-05-15T20:02:24.756Z,99839.78
2023-05-15T20:05:12.488Z,99857.28
2023-05-15T20:08:01.228Z,99845.66
2023-05-15T20:10:52.257Z,99848.56
2023-05-15T20:13:39.957Z,99824.28
2023-05-15T20:16:27.854Z,99820.00
2023-05-15T20:19:17.182Z,99825.28
2023-05-15T20:22:05.202Z,99828.59
2023-05-15T20:24:53.084Z,99817.91
2023-05-15T20:27:40.766Z,99806.41
2023-05-15T20:30:29.038Z,99816.84
2023-05-15T20:33:16.953Z,99821.31
2023-05-15T20:36:05.552Z,99820.13
2023-05-15T20:38:53.340Z,99819.78
2023-05-15T20:41:41.113Z,99828.56
2023-05-15T20:44:30.120Z,99789.63
2023-05-15T20:47:18.044Z,99815.09
2023-05-15T20:50:06.352Z,99796.88
2023-05-15T20:52:54.048Z,99817.19
2023-05-15T20:55:41.685Z,99793.34
2023-05-15T20:58:29.391Z,99805.22
2023-05-15T21:01:17.336Z,99808.06
2023-05-15T21:04:05.345Z,99794.59
2023-05-15T21:06:53.724Z,99796.94
2023-05-15T21:09:41.550Z,99804.06
2023-05-15T21:12:29.252Z,99794.91
2023-05-15T21:15:16.981Z,99781.03
2023-05-15T21:18:04.866Z,99798.16
2023-05-15T21:20:53.150Z,99776.34
2023-05-15T21:23:41.210Z,99791.03
2023-05-15T21:26:29.172Z,99764.06
2023-05-15T21:29:16.938Z,99785.88
2023-05-15T21:32:06.395Z,99778.34
2023-05-15T21:34:54.022Z,99709.69
2023-05-15T21:37:41.762Z,99770.81
2023-05-15T21:40:29.558Z,99772.81
2023-05-15T21:43:17.231Z,99778.03
2023-05-15T21:46:05.141Z,99782.38
2023-05-15T21:48:53.191Z,99766.50
2023-05-15T21:51:41.200Z,99778.81
2023-05-15T21:54:28.886Z,99775.69
2023-05-15T21:57:16.731Z,99787.59
2023-05-15T22:00:07.514Z,99790.81
2023-05-15T22:02:55.259Z,99790.41
2023-05-15T22:05:43.073Z,99797.97
2023-05-15T22:08:30.675Z,99781.34
2023-05-15T22:11:18.367Z,99767.81
2023-05-15T22:14:06.795Z,99802.78
2023-05-15T22:16:54.486Z,99800.84
2023-05-15T22:19:42.571Z,99798.47
2023-05-15T22:22:30.317Z,99803.63
2023-05-15T22:25:17.926Z,99793.69
2023-05-15T22:28:05.539Z,99802.81
2023-05-15T22:30:53.242Z,99806.44
2023-05-15T22:33:43.271Z,99806.03
2023-05-15T22:36:36.947Z,99810.75
2023-05-15T22:39:29.164Z,99801.66
2023-05-15T22:42:16.916Z,99802.50
2023-05-15T22:45:06.161Z,99761.53
2023-05-15T22:47:53.914Z,99796.53
2023-05-15T22:50:41.757Z,99820.75
2023-05-15T22:53:29.437Z,99796.88
2023-05-15T22:56:17.837Z,99817.97
2023-05-15T22:59:05.858Z,99777.78
2023-05-15T23:01:53.628Z,99777.81
2023-05-15T23:04:41.694Z,99786.56
2023-05-15T23:07:31.488Z,99786.16
2023-05-15T23:10:21.518Z,99793.31
2023-05-15T23:13:09.370Z,99801.69
2023-05-15T23:15:57.015Z,99771.84
2023-05-15T23:18:47.374Z,99807.25
2023-05-15T23:21:47.145Z,99768.69
2023-05-15T23:24:39.518Z,99807.25
2023-05-15T23:27:27.466Z,99794.13
2023-05-15T23:30:15.943Z,99820.78
2023-05-15T23:33:03.735Z,99787.75
2023-05-15T23:35:52.563Z,99813.97
2023-05-15T23:38:40.390Z,99779.81
2023-05-15T23:41:28.096Z,99804.88
2023-05-15T23:44:15.793Z,99802.06
2023-05-15T23:47:03.877Z,99809.25
2023-05-15T23:49:51.805Z,99769.53
2023-05-15T23:52:39.503Z,99807.28
2023-05-15T23:55:27.329Z,99768.69
2023-05-15T23:58:15.020Z,99792.53
